Time;durP1;ratioP1;P1;durP2;ratioP2;P2;SDS_P1;SDS_P2;PMS_P1;PMS_P2;Temp;Humidity;BMP_temperature;BMP_pressure;BME280_temperature;BME280_humidity;BME280_pressure;Samples;Min_cycle;Max_cycle;Signal;HPM_P1;HPM_P2
2023/10/31 00:01:17;;;;;;;1.90;1.00;;;12.60;99.90;;;;;;5054184;28;20550;-73
2023/10/31 00:03:44;;;;;;;1.80;0.90;;;12.60;99.90;;;;;;5052318;28;20531;-74
2023/10/31 00:06:11;;;;;;;3.80;1.70;;;12.60;99.90;;;;;;5056728;28;20552;-73
2023/10/31 00:08:38;;;;;;;3.10;1.10;;;12.60;99.90;;;;;;5054333;28;20889;-70
2023/10/31 00:11:05;;;;;;;18.63;2.70;;;12.70;99.90;;;;;;5054728;28;20467;-70
2023/10/31 00:13:32;;;;;;;6.17;1.87;;;12.50;99.90;;;;;;5054862;28;20574;-75
2023/10/31 00:15:59;;;;;;;3.70;1.40;;;12.50;99.90;;;;;;5054959;28;20489;-70
2023/10/31 00:18:27;;;;;;;23.17;2.40;;;12.50;99.90;;;;;;5051321;28;20522;-74
2023/10/31 00:20:54;;;;;;;2.30;1.23;;;12.50;99.90;;;;;;5054936;28;20561;-73
2023/10/31 00:23:20;;;;;;;4.37;0.90;;;12.50;99.90;;;;;;5054134;28;20989;-72
2023/10/31 00:25:47;;;;;;;10.53;1.43;;;12.50;99.90;;;;;;5055254;28;20481;-72
2023/10/31 00:28:14;;;;;;;3.33;0.90;;;12.50;99.90;;;;;;5064819;28;20498;-74
2023/10/31 00:30:41;;;;;;;1.60;0.80;;;12.40;99.90;;;;;;5076979;28;20551;-73
2023/10/31 00:33:08;;;;;;;9.33;1.27;;;12.30;99.90;;;;;;5055072;28;20506;-72
2023/10/31 00:35:37;;;;;;;2.20;0.90;;;12.30;99.90;;;;;;5056497;28;20562;-71
2023/10/31 00:38:04;;;;;;;1.60;0.83;;;12.30;99.90;;;;;;5053620;28;20483;-70
2023/10/31 00:40:31;;;;;;;1.70;0.90;;;12.30;99.90;;;;;;5055558;28;20487;-74
2023/10/31 00:42:58;;;;;;;10.93;1.63;;;12.30;99.90;;;;;;5054599;28;20534;-73
2023/10/31 00:45:25;;;;;;;14.13;2.13;;;12.30;99.90;;;;;;5064656;28;20494;-75
2023/10/31 00:47:52;;;;;;;11.80;2.47;;;12.20;99.90;;;;;;5077465;28;20800;-76
2023/10/31 00:50:19;;;;;;;8.53;3.20;;;12.20;99.90;;;;;;5054086;28;20999;-73
2023/10/31 00:52:47;;;;;;;7.70;3.70;;;;;;;;;;5067803;28;20474;-75
2023/10/31 00:55:14;;;;;;;2.30;2.03;;;12.10;99.90;;;;;;5048683;28;20482;-75
2023/10/31 00:57:41;;;;;;;2.60;2.10;;;12.20;99.90;;;;;;5072966;28;20847;-72
2023/10/31 01:00:09;;;;;;;9.13;2.23;;;12.10;99.90;;;;;;5053460;28;20513;-76
2023/10/31 01:02:36;;;;;;;5.00;1.97;;;12.10;99.90;;;;;;5069033;28;20545;-74
2023/10/31 01:05:03;;;;;;;2.60;1.80;;;12.10;99.90;;;;;;5048288;28;20558;-77
2023/10/31 01:07:30;;;;;;;6.60;1.70;;;12.10;99.90;;;;;;5055586;28;20904;-74
2023/10/31 01:09:58;;;;;;;2.63;1.50;;;12.00;99.90;;;;;;5052488;28;20473;-77
2023/10/31 01:12:27;;;;;;;2.90;1.20;;;12.00;99.90;;;;;;5063740;28;20606;-77
2023/10/31 01:14:55;;;;;;;5.90;1.27;;;12.10;99.90;;;;;;5056122;28;20467;-78
2023/10/31 01:17:23;;;;;;;3.23;1.43;;;12.10;99.90;;;;;;5055554;28;20514;-76
2023/10/31 01:19:50;;;;;;;9.63;2.30;;;12.10;99.90;;;;;;5055070;28;20485;-72
2023/10/31 01:22:18;;;;;;;2.27;1.20;;;12.10;99.90;;;;;;5065576;28;20475;-74
2023/10/31 01:24:45;;;;;;;1.93;1.30;;;12.10;99.90;;;;;;5053933;28;20998;-72
2023/10/31 01:27:14;;;;;;;3.30;1.50;;;12.20;99.90;;;;;;5052414;28;20477;-76
2023/10/31 01:29:41;;;;;;;2.20;1.20;;;12.20;99.90;;;;;;5075221;28;20490;-72
2023/10/31 01:32:09;;;;;;;3.20;1.53;;;12.20;99.90;;;;;;5076131;28;20477;-78
2023/10/31 01:34:36;;;;;;;2.73;1.23;;;12.20;99.90;;;;;;5054578;28;20482;-76
2023/10/31 01:37:04;;;;;;;2.17;1.20;;;12.20;99.90;;;;;;5055295;28;20549;-72
2023/10/31 01:39:31;;;;;;;5.30;1.30;;;12.20;99.90;;;;;;5051826;28;21488;-76
2023/10/31 01:41:59;;;;;;;3.20;1.30;;;12.20;99.90;;;;;;5054532;28;21358;-78
2023/10/31 01:44:28;;;;;;;2.93;1.10;;;12.20;99.90;;;;;;5050430;28;21152;-78
2023/10/31 01:46:56;;;;;;;1.60;0.87;;;12.20;99.90;;;;;;5053539;28;20870;-74
2023/10/31 01:49:23;;;;;;;4.73;1.00;;;12.10;99.90;;;;;;5054288;28;20483;-73
2023/10/31 01:51:51;;;;;;;4.80;1.20;;;12.10;99.90;;;;;;5060983;28;20508;-71
2023/10/31 01:54:19;;;;;;;4.13;1.57;;;12.10;99.90;;;;;;5037787;28;20463;-71
2023/10/31 01:56:50;;;;;;;2.13;1.17;;;12.10;99.90;;;;;;5053105;28;20498;-68
2023/10/31 01:59:19;;;;;;;4.63;1.13;;;12.00;99.90;;;;;;5054611;28;20978;-71
2023/10/31 02:01:49;;;;;;;5.40;1.67;;;12.00;99.90;;;;;;5057868;28;20571;-73
2023/10/31 02:04:16;;;;;;;2.10;1.13;;;12.00;99.90;;;;;;5081533;28;20859;-71
2023/10/31 02:06:44;;;;;;;1.80;1.10;;;12.00;99.90;;;;;;5053544;28;20851;-72
2023/10/31 02:09:11;;;;;;;4.60;1.30;;;12.00;99.90;;;;;;5049786;28;20504;-70
2023/10/31 02:11:39;;;;;;;6.73;1.20;;;12.00;99.90;;;;;;5073496;28;20510;-71
2023/10/31 02:14:06;;;;;;;2.00;1.23;;;12.00;99.90;;;;;;5054696;28;20481;-70
2023/10/31 02:16:34;;;;;;;3.30;1.20;;;11.90;99.90;;;;;;5064761;28;20471;-70
2023/10/31 02:19:04;;;;;;;7.00;1.60;;;11.90;99.90;;;;;;5048916;28;21296;-73
2023/10/31 02:21:33;;;;;;;1.73;1.00;;;12.00;99.90;;;;;;5028961;28;20468;-70
2023/10/31 02:24:03;;;;;;;6.17;1.40;;;11.90;99.90;;;;;;5066776;28;20493;-69
2023/10/31 02:26:31;;;;;;;3.40;1.57;;;11.90;99.90;;;;;;5048557;28;20489;-70
2023/10/31 02:28:59;;;;;;;6.80;1.23;;;11.80;99.90;;;;;;5048470;28;20623;-69
2023/10/31 02:31:27;;;;;;;1.70;1.00;;;11.80;99.90;;;;;;5049710;28;20517;-69
2023/10/31 02:33:55;;;;;;;2.10;1.20;;;11.80;99.90;;;;;;5050763;28;20590;-69
2023/10/31 02:36:23;;;;;;;2.40;1.13;;;11.80;99.90;;;;;;5054110;28;20513;-69
2023/10/31 02:38:50;;;;;;;10.73;1.77;;;11.80;99.90;;;;;;5064299;28;21362;-69
2023/10/31 02:41:18;;;;;;;3.83;1.50;;;11.80;99.90;;;;;;5058028;28;20498;-68
2023/10/31 02:43:45;;;;;;;10.37;1.60;;;11.70;99.90;;;;;;5057127;28;20581;-70
2023/10/31 02:46:13;;;;;;;3.07;1.13;;;11.70;99.90;;;;;;5059035;28;20565;-70
2023/10/31 02:48:41;;;;;;;2.27;1.13;;;;;;;;;;5047007;28;20485;-69
2023/10/31 02:51:09;;;;;;;3.30;1.00;;;11.80;99.90;;;;;;5071005;28;20477;-76
2023/10/31 02:53:36;;;;;;;1.80;1.03;;;11.80;99.90;;;;;;5078708;28;20582;-77
2023/10/31 02:56:04;;;;;;;3.47;1.30;;;11.80;99.90;;;;;;5058975;28;20507;-71
2023/10/31 02:58:32;;;;;;;4.43;1.13;;;11.90;99.90;;;;;;5086099;28;20523;-75
2023/10/31 03:00:58;;;;;;;29.97;2.50;;;12.00;99.90;;;;;;5060149;28;20837;-73
2023/10/31 03:03:25;;;;;;;11.03;1.57;;;12.00;99.90;;;;;;5064647;28;20568;-75
2023/10/31 03:05:52;;;;;;;2.30;1.03;;;12.00;99.90;;;;;;5065751;28;20516;-79
2023/10/31 03:08:20;;;;;;;1.90;1.13;;;12.00;99.90;;;;;;5082401;28;20485;-81
2023/10/31 03:10:50;;;;;;;2.33;1.20;;;12.00;99.90;;;;;;5069516;28;20517;-73
2023/10/31 03:13:17;;;;;;;9.00;1.37;;;12.00;99.90;;;;;;5071774;28;20474;-75
2023/10/31 03:15:46;;;;;;;3.20;1.57;;;12.00;99.90;;;;;;5053754;28;21085;-78
2023/10/31 03:18:14;;;;;;;32.47;2.10;;;12.00;99.90;;;;;;5084221;28;20573;-76
2023/10/31 03:20:41;;;;;;;1.60;0.97;;;12.10;99.90;;;;;;5022387;28;20490;-73
2023/10/31 03:23:08;;;;;;;3.03;1.37;;;12.10;99.90;;;;;;5087601;28;20562;-74
2023/10/31 03:25:34;;;;;;;1.90;1.00;;;12.00;99.90;;;;;;5078417;28;20587;-74
2023/10/31 03:28:01;;;;;;;2.30;1.20;;;12.00;99.90;;;;;;5070776;28;20605;-72
2023/10/31 03:30:28;;;;;;;2.57;1.30;;;11.90;99.90;;;;;;5073993;28;20902;-76
2023/10/31 03:32:56;;;;;;;3.53;1.27;;;11.90;99.90;;;;;;5059610;28;20587;-76
2023/10/31 03:35:23;;;;;;;1.90;1.10;;;12.00;99.90;;;;;;5075295;28;20867;-75
2023/10/31 03:37:49;;;;;;;5.10;1.20;;;11.90;99.90;;;;;;5078003;28;20473;-77
2023/10/31 03:40:16;;;;;;;1.70;1.00;;;12.00;99.90;;;;;;5054854;28;20997;-79
2023/10/31 03:42:43;;;;;;;2.10;1.30;;;11.80;99.90;;;;;;5054808;28;20486;-78
2023/10/31 03:45:10;;;;;;;5.63;1.53;;;11.80;99.90;;;;;;5084664;28;20570;-74
2023/10/31 03:47:37;;;;;;;10.70;1.30;;;11.90;99.90;;;;;;5061635;28;20993;-75
2023/10/31 03:50:06;;;;;;;4.37;1.47;;;11.80;99.90;;;;;;5079200;28;20933;-76
2023/10/31 03:52:33;;;;;;;1.70;0.97;;;11.80;99.90;;;;;;5050030;28;20639;-77
2023/10/31 03:55:00;;;;;;;7.53;1.40;;;11.80;99.90;;;;;;5082623;28;20572;-79
2023/10/31 03:57:27;;;;;;;2.90;1.20;;;11.80;99.90;;;;;;5070886;28;22391;-77
2023/10/31 03:59:54;;;;;;;4.73;1.40;;;11.70;99.90;;;;;;5043445;28;20592;-72
2023/10/31 04:02:20;;;;;;;2.97;1.40;;;11.70;99.90;;;;;;5069923;28;20590;-70
2023/10/31 04:04:47;;;;;;;12.33;2.00;;;11.70;99.90;;;;;;5054979;28;20604;-69
2023/10/31 04:07:15;;;;;;;15.63;2.07;;;11.60;99.90;;;;;;5065915;28;20495;-67
2023/10/31 04:09:43;;;;;;;18.60;2.00;;;11.60;99.90;;;;;;5057132;28;20566;-73
2023/10/31 04:12:10;;;;;;;11.23;1.70;;;11.70;99.90;;;;;;5063234;28;20544;-71
2023/10/31 04:14:36;;;;;;;2.87;1.63;;;11.70;99.90;;;;;;5073033;28;20578;-73
2023/10/31 04:17:04;;;;;;;3.50;1.60;;;11.60;99.90;;;;;;5053730;28;20471;-72
2023/10/31 04:19:30;;;;;;;11.33;1.60;;;11.50;99.90;;;;;;5051093;28;20509;-73
2023/10/31 04:21:57;;;;;;;6.80;2.57;;;11.40;99.90;;;;;;5079570;28;20584;-73
2023/10/31 04:24:25;;;;;;;2.50;1.30;;;11.50;99.90;;;;;;5040560;28;20593;-68
2023/10/31 04:26:52;;;;;;;3.47;1.40;;;11.50;99.90;;;;;;5084275;28;20981;-73
2023/10/31 04:29:20;;;;;;;3.70;1.30;;;11.60;99.90;;;;;;5061739;28;20543;-69
2023/10/31 04:31:47;;;;;;;3.83;1.30;;;11.60;99.90;;;;;;5037211;28;20934;-69
2023/10/31 04:34:14;;;;;;;2.40;1.50;;;11.70;99.90;;;;;;5053114;28;21092;-70
2023/10/31 04:36:41;;;;;;;5.20;1.63;;;11.70;99.90;;;;;;5075034;28;20478;-71
2023/10/31 04:39:08;;;;;;;2.90;1.80;;;11.60;99.90;;;;;;5065911;28;20655;-71
2023/10/31 04:41:36;;;;;;;30.90;2.60;;;11.60;99.90;;;;;;5055070;28;20689;-74
2023/10/31 04:44:03;;;;;;;2.10;1.57;;;11.70;99.90;;;;;;5079686;28;20504;-68
2023/10/31 04:46:30;;;;;;;13.60;1.87;;;11.80;99.90;;;;;;5041972;28;20892;-69
2023/10/31 04:48:56;;;;;;;4.87;1.53;;;11.80;99.90;;;;;;5057802;28;20520;-68
2023/10/31 04:51:23;;;;;;;2.20;1.30;;;11.90;99.90;;;;;;5026383;28;20517;-71
2023/10/31 04:53:50;;;;;;;9.60;1.77;;;11.90;99.90;;;;;;5065423;28;20583;-69
2023/10/31 04:56:17;;;;;;;4.10;1.40;;;12.00;99.90;;;;;;5051853;28;20545;-68
2023/10/31 04:58:46;;;;;;;4.33;1.03;;;12.00;99.90;;;;;;5080368;28;20477;-69
2023/10/31 05:01:13;;;;;;;8.87;1.80;;;11.80;99.90;;;;;;5065359;28;20585;-70
2023/10/31 05:03:40;;;;;;;6.60;1.33;;;11.90;99.90;;;;;;5080370;28;20502;-70
2023/10/31 05:06:07;;;;;;;4.83;1.93;;;11.90;99.90;;;;;;5055249;28;20481;-68
2023/10/31 05:08:34;;;;;;;2.90;1.40;;;11.90;99.90;;;;;;5068837;28;20481;-67
2023/10/31 05:11:01;;;;;;;5.57;1.60;;;11.90;99.90;;;;;;5079956;28;20505;-72
2023/10/31 05:13:28;;;;;;;2.47;1.30;;;11.90;99.90;;;;;;5085073;28;20492;-75
2023/10/31 05:15:56;;;;;;;2.30;0.90;;;11.80;99.90;;;;;;5077446;28;20447;-74
2023/10/31 05:18:24;;;;;;;2.47;1.30;;;11.90;99.90;;;;;;5059742;28;20514;-74
2023/10/31 05:20:50;;;;;;;38.90;3.13;;;11.80;99.90;;;;;;5057691;28;20574;-67
2023/10/31 05:23:17;;;;;;;4.60;1.23;;;11.90;99.90;;;;;;5057204;28;20996;-70
2023/10/31 05:25:44;;;;;;;11.77;1.93;;;11.90;99.90;;;;;;5052776;28;20489;-69
2023/10/31 05:28:11;;;;;;;24.53;2.20;;;11.90;99.90;;;;;;5073117;28;20490;-70
2023/10/31 05:30:38;;;;;;;2.00;1.27;;;11.90;99.90;;;;;;5051530;28;21014;-70
2023/10/31 05:33:06;;;;;;;5.67;1.40;;;11.90;99.90;;;;;;5069034;28;20545;-68
2023/10/31 05:35:34;;;;;;;15.30;2.13;;;11.80;99.90;;;;;;5072897;28;20491;-71
2023/10/31 05:38:10;;;;;;;1.80;1.03;;;11.80;99.90;;;;;;5027352;28;20900;-69
2023/10/31 05:40:37;;;;;;;8.77;1.60;;;11.90;99.90;;;;;;5046894;28;20541;-72
2023/10/31 05:43:04;;;;;;;3.17;1.33;;;11.80;99.90;;;;;;5069957;28;20546;-70
2023/10/31 05:45:31;;;;;;;3.90;1.37;;;11.80;99.90;;;;;;5056552;28;20504;-69
2023/10/31 05:47:58;;;;;;;3.33;1.67;;;11.70;99.90;;;;;;5081290;28;21418;-69
2023/10/31 05:50:26;;;;;;;33.47;3.30;;;11.70;99.90;;;;;;5055768;28;20481;-70
2023/10/31 05:52:53;;;;;;;2.67;1.70;;;11.70;99.90;;;;;;5054010;28;20558;-68
2023/10/31 05:55:20;;;;;;;11.23;2.00;;;11.60;99.90;;;;;;5057097;28;20573;-73
2023/10/31 05:57:47;;;;;;;4.30;1.70;;;11.60;99.90;;;;;;5056722;28;20575;-69
2023/10/31 06:00:15;;;;;;;9.03;2.37;;;11.70;99.90;;;;;;5072002;28;20473;-71
2023/10/31 06:02:41;;;;;;;13.87;2.23;;;11.60;99.90;;;;;;5053618;28;20479;-71
2023/10/31 06:05:09;;;;;;;13.60;2.70;;;11.60;99.90;;;;;;5059009;28;20961;-70
2023/10/31 06:07:37;;;;;;;7.97;2.00;;;11.60;99.90;;;;;;5059221;28;20495;-71
2023/10/31 06:10:05;;;;;;;4.10;2.00;;;11.60;99.90;;;;;;5047713;28;20481;-72
2023/10/31 06:12:31;;;;;;;3.07;1.73;;;11.60;99.90;;;;;;5054342;28;20919;-70
2023/10/31 06:14:58;;;;;;;4.00;2.03;;;11.60;99.90;;;;;;5054319;28;20475;-71
2023/10/31 06:17:26;;;;;;;7.93;2.40;;;11.50;99.90;;;;;;5058077;28;20564;-70
2023/10/31 06:19:59;;;;;;;3.10;2.13;;;11.50;99.90;;;;;;5075568;28;21068;-69
2023/10/31 06:22:26;;;;;;;2.37;1.97;;;11.60;99.90;;;;;;5060247;28;20840;-68
2023/10/31 06:24:54;;;;;;;12.73;2.90;;;11.70;99.90;;;;;;5054726;28;20529;-68
2023/10/31 06:27:21;;;;;;;2.30;1.90;;;11.80;99.90;;;;;;5058478;28;20973;-69
2023/10/31 06:29:48;;;;;;;16.93;2.83;;;11.60;99.90;;;;;;5055250;28;20768;-68
2023/10/31 06:32:14;;;;;;;4.93;2.33;;;11.60;99.90;;;;;;5058589;28;20483;-71
2023/10/31 06:34:41;;;;;;;4.07;2.37;;;11.60;99.90;;;;;;5054800;28;20820;-70
2023/10/31 06:37:08;;;;;;;14.47;2.67;;;11.60;99.90;;;;;;5058168;28;21025;-69
2023/10/31 06:39:35;;;;;;;5.10;2.20;;;11.50;99.90;;;;;;5059922;28;20481;-69
2023/10/31 06:42:03;;;;;;;2.63;2.20;;;11.40;99.90;;;;;;5060146;28;20503;-69
2023/10/31 06:44:30;;;;;;;8.63;2.43;;;11.50;99.90;;;;;;5053881;28;20493;-69
2023/10/31 06:46:57;;;;;;;13.40;2.80;;;11.40;99.90;;;;;;5058044;28;20898;-71
2023/10/31 06:49:23;;;;;;;6.20;1.80;;;11.40;99.90;;;;;;5076403;28;20568;-68
2023/10/31 06:51:50;;;;;;;4.50;2.40;;;11.50;99.90;;;;;;5065965;28;20576;-72
2023/10/31 06:54:17;;;;;;;10.03;2.90;;;11.50;99.90;;;;;;5061599;28;20790;-69
2023/10/31 06:56:44;;;;;;;13.80;2.10;;;11.40;99.90;;;;;;5061706;28;20473;-71
2023/10/31 06:59:13;;;;;;;8.20;3.10;;;11.40;99.90;;;;;;5063060;28;20493;-74
2023/10/31 07:01:39;;;;;;;5.43;2.03;;;11.50;99.90;;;;;;5047385;28;20482;-72
2023/10/31 07:04:06;;;;;;;21.83;3.20;;;11.50;99.90;;;;;;5061152;28;20728;-71
2023/10/31 07:06:33;;;;;;;4.87;2.00;;;11.40;99.90;;;;;;5061699;28;20546;-68
2023/10/31 07:09:04;;;;;;;6.67;2.47;;;11.40;99.90;;;;;;5056985;28;20704;-71
2023/10/31 07:11:33;;;;;;;14.00;2.80;;;11.40;99.90;;;;;;5060935;28;20486;-68
2023/10/31 07:14:00;;;;;;;5.20;2.40;;;11.50;99.90;;;;;;5060689;28;20477;-71
2023/10/31 07:16:29;;;;;;;6.07;2.93;;;11.60;99.90;;;;;;5061495;28;20745;-71
2023/10/31 07:18:56;;;;;;;6.43;2.23;;;11.50;99.90;;;;;;5059125;28;20501;-72
2023/10/31 07:21:23;;;;;;;5.10;2.50;;;11.60;99.90;;;;;;5060350;28;20718;-72
2023/10/31 07:23:49;;;;;;;10.00;2.57;;;11.60;99.90;;;;;;5060499;28;20554;-71
2023/10/31 07:26:16;;;;;;;4.13;1.70;;;11.70;99.90;;;;;;5060444;28;20662;-69
2023/10/31 07:28:43;;;;;;;8.07;2.23;;;11.80;99.90;;;;;;5084813;28;20573;-70
2023/10/31 07:31:10;;;;;;;11.27;2.83;;;11.80;99.90;;;;;;5058791;28;20471;-72
2023/10/31 07:33:38;;;;;;;31.27;3.80;;;11.70;99.90;;;;;;5059906;28;20471;-70
2023/10/31 07:36:06;;;;;;;7.13;3.40;;;11.70;99.90;;;;;;5055635;28;20475;-70
2023/10/31 07:38:33;;;;;;;27.43;4.20;;;11.60;99.90;;;;;;5058948;28;20944;-71
2023/10/31 07:41:00;;;;;;;7.97;3.23;;;11.70;99.90;;;;;;5064859;28;20528;-76
2023/10/31 07:43:26;;;;;;;4.07;2.20;;;11.80;99.90;;;;;;5057901;28;21120;-77
2023/10/31 07:45:53;;;;;;;29.73;3.30;;;11.80;99.90;;;;;;5059029;28;20499;-75
2023/10/31 07:48:20;;;;;;;6.53;2.63;;;;;;;;;;5060850;28;20458;-71
2023/10/31 07:50:48;;;;;;;3.23;2.63;;;11.90;99.90;;;;;;5066330;28;20489;-73
2023/10/31 07:53:15;;;;;;;17.50;2.93;;;11.90;99.90;;;;;;5058976;28;21048;-75
2023/10/31 07:55:42;;;;;;;7.27;2.30;;;11.90;99.90;;;;;;5056491;28;20475;-73
2023/10/31 07:58:09;;;;;;;5.73;3.30;;;11.90;99.90;;;;;;5060973;28;20953;-74
2023/10/31 08:00:38;;;;;;;13.10;2.67;;;12.00;99.90;;;;;;5069586;28;20907;-73
2023/10/31 08:03:05;;;;;;;12.93;2.60;;;12.20;99.90;;;;;;5080886;28;20497;-74
2023/10/31 08:05:32;;;;;;;5.30;2.00;;;12.50;99.90;;;;;;5062009;28;20562;-74
2023/10/31 08:08:00;;;;;;;13.20;2.17;;;12.60;99.90;;;;;;5059514;28;20562;-75
2023/10/31 08:10:27;;;;;;;13.60;3.03;;;12.50;99.90;;;;;;5060049;28;20859;-74
2023/10/31 08:12:54;;;;;;;32.33;3.70;;;12.50;99.90;;;;;;5072865;28;20499;-75
2023/10/31 08:15:20;;;;;;;4.93;2.07;;;12.40;99.90;;;;;;5063356;28;20839;-76
2023/10/31 08:17:47;;;;;;;11.43;2.70;;;12.30;99.90;;;;;;5060151;28;20501;-75
2023/10/31 08:20:14;;;;;;;16.93;2.50;;;12.10;99.90;;;;;;5063788;28;20505;-69
2023/10/31 08:22:42;;;;;;;6.33;2.50;;;12.00;99.90;;;;;;5076740;28;21235;-70
2023/10/31 08:25:10;;;;;;;14.47;2.47;;;12.10;99.90;;;;;;5053715;28;20578;-68
2023/10/31 08:27:37;;;;;;;11.70;2.60;;;12.10;99.90;;;;;;5060242;28;20475;-69
2023/10/31 08:30:04;;;;;;;9.37;4.93;;;12.10;99.90;;;;;;5054143;28;20499;-74
2023/10/31 08:32:31;;;;;;;3.57;2.53;;;12.10;99.90;;;;;;5060578;28;20594;-75
2023/10/31 08:34:58;;;;;;;15.20;4.03;;;12.00;99.90;;;;;;5045869;28;20468;-74
2023/10/31 08:37:25;;;;;;;8.57;2.50;;;12.10;99.90;;;;;;5069552;28;21046;-76
2023/10/31 08:39:52;;;;;;;6.33;3.17;;;12.20;99.90;;;;;;5056813;28;20580;-69
2023/10/31 08:42:20;;;;;;;4.87;2.80;;;;;;;;;;5059035;28;20497;-67
2023/10/31 08:44:47;;;;;;;5.27;2.60;;;12.70;99.90;;;;;;5068309;28;20620;-68
2023/10/31 08:47:14;;;;;;;29.13;3.90;;;13.20;99.90;;;;;;5075956;28;20550;-69
2023/10/31 08:49:40;;;;;;;8.53;2.63;;;13.40;99.90;;;;;;5049565;28;21045;-74
2023/10/31 08:52:07;;;;;;;12.60;2.73;;;13.50;99.90;;;;;;5053711;28;20488;-72
2023/10/31 08:54:34;;;;;;;15.70;3.20;;;;;;;;;;5069822;28;20491;-73
2023/10/31 08:57:01;;;;;;;6.13;3.40;;;13.50;99.90;;;;;;5066626;28;20966;-74
2023/10/31 08:59:30;;;;;;;10.63;2.83;;;13.40;99.90;;;;;;5052740;28;20479;-68
2023/10/31 09:01:57;;;;;;;16.13;3.70;;;13.20;99.90;;;;;;5073247;28;20473;-69
2023/10/31 09:04:24;;;;;;;10.63;2.80;;;13.20;99.90;;;;;;5065026;28;20558;-68
2023/10/31 09:07:01;;;;;;;6.30;2.60;;;13.10;99.90;;;;;;5060209;28;21110;-67
2023/10/31 09:09:27;;;;;;;16.03;3.10;;;13.00;99.90;;;;;;5061411;28;20492;-71
2023/10/31 09:11:54;;;;;;;5.60;2.50;;;12.90;99.90;;;;;;5057395;28;20483;-69
2023/10/31 09:14:21;;;;;;;9.50;3.23;;;12.80;99.90;;;;;;5058784;28;20716;-73
2023/10/31 09:16:49;;;;;;;8.23;3.70;;;12.50;99.90;;;;;;5057484;28;20540;-70
2023/10/31 09:19:16;;;;;;;11.70;3.80;;;12.50;99.90;;;;;;5050959;28;20910;-68
2023/10/31 09:21:43;;;;;;;29.37;4.50;;;12.40;99.90;;;;;;5072967;28;21062;-72
2023/10/31 09:24:11;;;;;;;6.27;3.00;;;12.40;99.90;;;;;;5056721;28;20792;-70
2023/10/31 09:26:38;;;;;;;10.37;3.30;;;12.30;99.90;;;;;;5051892;28;20570;-74
2023/10/31 09:29:05;;;;;;;6.03;2.27;;;12.20;99.90;;;;;;5057075;28;20544;-69
2023/10/31 09:31:32;;;;;;;11.57;2.30;;;12.30;99.90;;;;;;5064833;28;20909;-70
2023/10/31 09:34:00;;;;;;;4.43;2.00;;;12.40;99.90;;;;;;5044094;28;21498;-71
2023/10/31 09:36:26;;;;;;;7.90;1.80;;;12.40;99.90;;;;;;5081394;28;20508;-71
2023/10/31 09:38:53;;;;;;;7.83;2.43;;;12.40;99.90;;;;;;5063371;28;20560;-70
2023/10/31 09:41:20;;;;;;;8.50;1.93;;;12.50;99.90;;;;;;5072259;28;20457;-70
2023/10/31 09:43:47;;;;;;;5.87;1.63;;;12.40;99.90;;;;;;5033488;28;21003;-70
2023/10/31 09:46:13;;;;;;;4.77;2.80;;;12.50;99.90;;;;;;5070340;28;20475;-73
2023/10/31 09:48:41;;;;;;;8.33;2.40;;;12.60;99.90;;;;;;5043900;28;20917;-70
2023/10/31 09:51:10;;;;;;;6.53;2.43;;;12.90;99.90;;;;;;5065088;28;20550;-72
2023/10/31 09:53:39;;;;;;;7.50;2.57;;;13.10;99.90;;;;;;5059222;28;20527;-76
2023/10/31 09:56:07;;;;;;;24.07;3.57;;;;;;;;;;5056983;28;20572;-76
2023/10/31 09:58:34;;;;;;;4.90;2.03;;;13.10;99.90;;;;;;5054033;28;20599;-76
2023/10/31 10:01:01;;;;;;;13.23;2.97;;;13.00;99.90;;;;;;5068668;28;20478;-79
2023/10/31 10:03:28;;;;;;;16.30;2.43;;;13.00;99.90;;;;;;5068845;28;20654;-74
2023/10/31 10:05:55;;;;;;;5.70;2.53;;;13.00;99.90;;;;;;5060297;28;21015;-74
2023/10/31 10:08:24;;;;;;;4.43;2.77;;;;;;;;;;5054802;28;20457;-77
2023/10/31 10:10:51;;;;;;;12.23;2.47;;;13.10;99.90;;;;;;5056966;28;20481;-75
2023/10/31 10:13:18;;;;;;;3.90;2.30;;;13.10;99.90;;;;;;5073373;28;21037;-73
2023/10/31 10:15:45;;;;;;;5.57;2.20;;;13.40;99.90;;;;;;5030321;28;21043;-75
2023/10/31 10:18:26;;;;;;;12.40;2.47;;;13.50;99.90;;;;;;5088739;28;20850;-78
2023/10/31 10:20:56;;;;;;;15.63;2.53;;;13.60;99.90;;;;;;5046309;28;20504;-77
2023/10/31 10:23:24;;;;;;;5.00;1.83;;;13.60;99.90;;;;;;5059799;28;21001;-75
2023/10/31 10:25:51;;;;;;;15.20;2.47;;;13.60;99.90;;;;;;5075542;28;20479;-78
2023/10/31 10:28:19;;;;;;;5.63;1.83;;;13.50;99.90;;;;;;5043604;28;20558;-74
2023/10/31 10:30:47;;;;;;;15.47;2.53;;;13.40;99.90;;;;;;5076855;28;20485;-75
2023/10/31 10:33:14;;;;;;;5.90;2.20;;;13.50;99.90;;;;;;5061614;28;20475;-75
2023/10/31 10:35:41;;;;;;;7.70;1.90;;;13.50;99.90;;;;;;5059569;28;20664;-73
2023/10/31 10:38:12;;;;;;;10.87;2.40;;;13.70;99.90;;;;;;5093832;28;20537;-74
2023/10/31 10:40:43;;;;;;;11.80;2.57;;;13.90;99.90;;;;;;5058057;28;21295;-71
2023/10/31 10:43:14;;;;;;;4.63;1.80;;;13.90;99.90;;;;;;5062034;28;21211;-74
2023/10/31 10:45:44;;;;;;;22.90;2.57;;;14.10;99.90;;;;;;5060859;28;20570;-76
2023/10/31 10:48:14;;;;;;;4.50;2.00;;;;;;;;;;5054736;28;20526;-76
2023/10/31 10:50:43;;;;;;;3.90;1.30;;;14.00;99.90;;;;;;5081773;28;20551;-74
2023/10/31 10:53:18;;;;;;;17.07;2.17;;;14.10;99.90;;;;;;5062502;28;20541;-76
2023/10/31 10:55:49;;;;;;;7.80;2.03;;;14.40;99.90;;;;;;5021806;28;20493;-76
2023/10/31 10:58:27;;;;;;;20.27;2.80;;;14.40;99.90;;;;;;5082438;28;20996;-78
2023/10/31 11:00:56;;;;;;;13.27;3.20;;;14.50;99.90;;;;;;5051148;28;20456;-72
2023/10/31 11:03:24;;;;;;;6.80;2.30;;;14.50;99.90;;;;;;5060951;28;20487;-69
2023/10/31 11:05:51;;;;;;;12.03;1.83;;;14.80;99.90;;;;;;5053673;28;20678;-69
2023/10/31 11:08:21;;;;;;;7.67;1.97;;;14.80;99.90;;;;;;5062999;28;20562;-69
2023/10/31 11:10:49;;;;;;;5.40;2.10;;;14.80;99.90;;;;;;5053389;28;20553;-69
2023/10/31 11:13:16;;;;;;;11.33;2.20;;;15.00;99.90;;;;;;5058139;28;20574;-68
2023/10/31 11:15:44;;;;;;;19.57;2.73;;;15.00;99.90;;;;;;5061515;28;21028;-71
2023/10/31 11:18:11;;;;;;;9.90;2.10;;;15.00;99.90;;;;;;5061958;28;20475;-67
2023/10/31 11:20:39;;;;;;;4.97;1.80;;;15.30;99.90;;;;;;5048468;28;20477;-71
2023/10/31 11:23:06;;;;;;;4.73;1.40;;;15.30;99.90;;;;;;5048865;28;20541;-69
2023/10/31 11:25:34;;;;;;;28.17;3.47;;;15.50;99.90;;;;;;5080318;28;20906;-69
2023/10/31 11:28:14;;;;;;;9.97;1.80;;;15.60;99.90;;;;;;5062423;28;20565;-68
2023/10/31 11:30:42;;;;;;;2.73;1.83;;;15.70;99.90;;;;;;5046639;28;20485;-71
2023/10/31 11:33:12;;;;;;;11.87;1.80;;;15.80;99.90;;;;;;5081101;28;21081;-69
2023/10/31 11:35:40;;;;;;;5.60;2.07;;;15.70;99.90;;;;;;5046035;28;20568;-68
2023/10/31 11:38:10;;;;;;;5.63;1.70;;;15.50;99.90;;;;;;5065123;28;20543;-70
2023/10/31 11:40:38;;;;;;;4.47;2.00;;;15.30;99.90;;;;;;5078355;28;20552;-70
2023/10/31 11:43:06;;;;;;;15.27;2.50;;;15.30;99.90;;;;;;5061952;28;20479;-69
2023/10/31 11:45:37;;;;;;;3.40;1.80;;;15.20;99.90;;;;;;5059319;28;20499;-67
2023/10/31 11:48:05;;;;;;;6.23;2.80;;;15.10;99.90;;;;;;5071052;28;20493;-68
2023/10/31 11:50:33;;;;;;;1.90;1.43;;;15.10;99.90;;;;;;5054986;28;20960;-69
2023/10/31 11:53:02;;;;;;;13.07;2.00;;;15.10;99.90;;;;;;5049603;28;20537;-69
2023/10/31 11:55:29;;;;;;;2.70;1.90;;;15.20;99.90;;;;;;5062181;28;20475;-69
2023/10/31 11:57:56;;;;;;;11.63;2.50;;;15.20;99.90;;;;;;5052185;28;20455;-69
2023/10/31 12:00:24;;;;;;;11.33;2.30;;;15.40;99.90;;;;;;5063687;28;20585;-70
2023/10/31 12:03:02;;;;;;;7.30;2.40;;;15.50;99.90;;;;;;5084558;22;21116;-78
2023/10/31 12:05:29;;;;;;;4.87;2.47;;;15.40;99.90;;;;;;5053032;28;20487;-74
2023/10/31 12:07:57;;;;;;;14.90;2.23;;;15.10;99.90;;;;;;5055805;28;21213;-79
2023/10/31 12:10:25;;;;;;;4.47;2.60;;;15.00;99.90;;;;;;5041480;28;21042;-79
2023/10/31 12:12:52;;;;;;;7.60;2.30;;;14.60;99.90;;;;;;5056948;28;21101;-80
2023/10/31 12:15:19;;;;;;;9.83;2.20;;;14.50;99.90;;;;;;5061248;28;20483;-76
2023/10/31 12:17:46;;;;;;;5.70;2.40;;;14.30;99.90;;;;;;5044652;28;20450;-75
2023/10/31 12:20:14;;;;;;;4.43;2.90;;;14.30;99.90;;;;;;5053033;28;20574;-79
2023/10/31 12:22:41;;;;;;;4.30;2.10;;;14.60;99.90;;;;;;5046817;28;20482;-75
2023/10/31 12:25:09;;;;;;;8.13;2.83;;;14.70;99.90;;;;;;5066216;28;20480;-78
2023/10/31 12:27:46;;;;;;;42.23;4.43;;;15.10;99.90;;;;;;5045138;28;20868;-78
2023/10/31 12:30:13;;;;;;;5.07;2.50;;;15.20;99.90;;;;;;5056754;28;20483;-78
2023/10/31 12:32:42;;;;;;;2.50;1.80;;;15.30;99.90;;;;;;5049295;28;20550;-71
2023/10/31 12:35:15;;;;;;;13.80;2.07;;;15.30;99.90;;;;;;5038554;28;20619;-80
2023/10/31 12:37:46;;;;;;;10.90;2.97;;;15.10;99.90;;;;;;5070699;28;20537;-76
2023/10/31 12:40:15;;;;;;;2.73;1.57;;;15.10;99.90;;;;;;5038636;28;20483;-77
2023/10/31 12:42:43;;;;;;;10.17;2.90;;;14.80;99.90;;;;;;5040435;28;20554;-77
2023/10/31 12:45:12;;;;;;;2.70;2.07;;;14.60;99.90;;;;;;5055083;28;20640;-79
2023/10/31 12:47:39;;;;;;;3.00;2.50;;;14.70;99.90;;;;;;5055708;28;20549;-76